createdAt,value
2023-08-23T00:02:00.678Z,95879.66
2023-08-23T00:04:28.352Z,95885.50
2023-08-23T00:06:55.359Z,95880.41
2023-08-23T00:09:22.097Z,95891.56
2023-08-23T00:11:48.820Z,95884.81
2023-08-23T00:14:15.491Z,95883.31
2023-08-23T00:16:42.247Z,95892.94
2023-08-23T00:19:09.086Z,95892.59
2023-08-23T00:21:35.805Z,95872.84
2023-08-23T00:24:02.542Z,95894.47
2023-08-23T00:26:29.471Z,95887.81
2023-08-23T00:28:56.394Z,95881.16
2023-08-23T00:31:23.163Z,95882.81
2023-08-23T00:33:50.093Z,95882.19
2023-08-23T00:36:16.978Z,95884.78
2023-08-23T00:38:43.698Z,95878.47
2023-08-23T00:41:10.631Z,95876.22
2023-08-23T00:43:37.333Z,95879.72
2023-08-23T00:46:04.236Z,95872.75
2023-08-23T00:48:31.025Z,95876.44
2023-08-23T00:50:58.660Z,95875.63
2023-08-23T00:53:25.608Z,95878.66
2023-08-23T00:55:52.389Z,95867.88
2023-08-23T00:58:20.130Z,95871.53
2023-08-23T01:00:47.475Z,95875.13
2023-08-23T01:03:14.235Z,95868.22
2023-08-23T01:05:40.875Z,95873.47
2023-08-23T01:08:32.976Z,95874.06
2023-08-23T01:11:07.395Z,95872.44
2023-08-23T01:13:44.105Z,95873.44
2023-08-23T01:16:11.853Z,95868.25
2023-08-23T01:18:41.524Z,95861.94
2023-08-23T01:21:08.343Z,95859.69
2023-08-23T01:23:35.334Z,95855.16
2023-08-23T01:26:02.468Z,95852.50
2023-08-23T01:28:29.148Z,95850.19
2023-08-23T01:31:00.814Z,95852.63
2023-08-23T01:33:46.446Z,95853.75
2023-08-23T01:36:22.989Z,95854.28
2023-08-23T01:38:51.926Z,95849.03
2023-08-23T01:41:19.070Z,95861.16
2023-08-23T01:43:49.037Z,95866.72
2023-08-23T01:46:16.019Z,95878.19
2023-08-23T01:48:42.815Z,95884.91
2023-08-23T01:51:09.553Z,95888.94
2023-08-23T01:53:36.274Z,95896.47
2023-08-23T01:56:03.008Z,95896.78
2023-08-23T01:58:29.843Z,95896.78
2023-08-23T02:00:56.532Z,95891.19
2023-08-23T02:03:23.379Z,95888.47
2023-08-23T02:05:50.108Z,95883.84
2023-08-23T02:08:18.584Z,95888.03
2023-08-23T02:10:45.261Z,95870.09
2023-08-23T02:13:11.915Z,95861.16
2023-08-23T02:15:38.696Z,95851.94
2023-08-23T02:18:05.569Z,95852.41
2023-08-23T02:20:32.263Z,95849.38
2023-08-23T02:22:58.984Z,95859.59
2023-08-23T02:25:25.665Z,95854.00
2023-08-23T02:27:52.392Z,95869.09
2023-08-23T02:30:19.185Z,95875.94
2023-08-23T02:32:46.172Z,95867.09
2023-08-23T02:35:12.918Z,95881.16
2023-08-23T02:37:40.184Z,95885.38
2023-08-23T02:40:07.731Z,95894.03
2023-08-23T02:42:34.504Z,95890.44
2023-08-23T02:45:01.375Z,95896.13
2023-08-23T02:47:28.141Z,95892.72
2023-08-23T02:49:55.075Z,95896.94
2023-08-23T02:52:21.915Z,95885.97
2023-08-23T02:54:48.736Z,95877.59
2023-08-23T02:57:15.436Z,95880.56
2023-08-23T02:59:42.406Z,95888.81
2023-08-23T03:02:09.214Z,95880.72
2023-08-23T03:04:36.044Z,95879.31
2023-08-23T03:07:02.745Z,95877.28
2023-08-23T03:09:30.155Z,95868.09
2023-08-23T03:11:57.091Z,95866.03
2023-08-23T03:14:23.801Z,95869.22
2023-08-23T03:16:50.516Z,95867.69
2023-08-23T03:19:17.220Z,95866.88
2023-08-23T03:21:43.885Z,95874.00
2023-08-23T03:24:10.578Z,95872.59
2023-08-23T03:26:37.305Z,95882.69
2023-08-23T03:29:04.122Z,95890.44
2023-08-23T03:31:30.847Z,95892.34
2023-08-23T03:33:57.536Z,95907.44
2023-08-23T03:36:25.116Z,95910.47
2023-08-23T03:38:51.829Z,95913.03
2023-08-23T03:41:18.709Z,95917.28
2023-08-23T03:43:45.435Z,95923.31
2023-08-23T03:46:12.498Z,95914.13
2023-08-23T03:48:39.352Z,95915.22
2023-08-23T03:53:35.151Z,95916.75
2023-08-23T03:56:01.911Z,95930.84
2023-08-23T03:58:28.660Z,95939.00
2023-08-23T04:00:55.591Z,95932.06
2023-08-23T04:03:22.441Z,95929.88
2023-08-23T04:05:49.500Z,95931.78
2023-08-23T04:08:17.893Z,95923.91
2023-08-23T04:10:51.005Z,95919.97
2023-08-23T04:13:18.315Z,95922.09
2023-08-23T04:15:46.102Z,95915.44
2023-08-23T04:18:13.133Z,95906.72
2023-08-23T04:20:40.237Z,95897.16
2023-08-23T04:23:07.072Z,95914.34
2023-08-23T04:25:34.128Z,95915.28
2023-08-23T04:28:00.798Z,95918.69
2023-08-23T04:30:27.542Z,95920.06
2023-08-23T04:32:54.331Z,95920.25
2023-08-23T04:35:21.054Z,95924.84
2023-08-23T04:37:47.973Z,95915.78
2023-08-23T04:40:15.261Z,95906.13
2023-08-23T04:42:42.071Z,95908.19
2023-08-23T04:45:09.285Z,95924.69
2023-08-23T04:47:36.341Z,95924.50
2023-08-23T04:50:03.251Z,95919.88
2023-08-23T04:52:30.022Z,95922.28
2023-08-23T04:54:56.890Z,95920.56
2023-08-23T04:57:23.760Z,95929.72
2023-08-23T04:59:50.671Z,95931.84
2023-08-23T05:02:17.303Z,95936.09
2023-08-23T05:04:44.215Z,95941.16
2023-08-23T05:07:11.095Z,95935.00
2023-08-23T05:09:37.892Z,95930.38
2023-08-23T05:12:05.141Z,95930.53
2023-08-23T05:14:31.867Z,95939.09
2023-08-23T05:17:00.203Z,95951.97
2023-08-23T05:19:27.147Z,95956.72
2023-08-23T05:21:53.946Z,95948.13
2023-08-23T05:24:20.669Z,95944.47
2023-08-23T05:26:47.597Z,95951.00
2023-08-23T05:29:14.381Z,95948.28
2023-08-23T05:31:41.206Z,95947.69
2023-08-23T05:34:08.061Z,95939.66
2023-08-23T05:36:34.866Z,95939.88
2023-08-23T05:39:04.043Z,95940.25
2023-08-23T05:41:30.986Z,95938.88
2023-08-23T05:43:57.660Z,95940.06
2023-08-23T05:46:24.345Z,95939.69
2023-08-23T05:48:51.117Z,95946.81
2023-08-23T05:51:18.245Z,95942.75
2023-08-23T05:53:44.893Z,95944.13
2023-08-23T05:56:11.570Z,95942.16
2023-08-23T05:58:38.347Z,95940.84
2023-08-23T06:01:05.138Z,95944.72
2023-08-23T06:03:31.938Z,95945.47
2023-08-23T06:05:58.716Z,95940.28
2023-08-23T06:08:25.450Z,95933.38
2023-08-23T06:10:52.158Z,95928.28
2023-08-23T06:13:18.890Z,95933.38
2023-08-23T06:15:45.652Z,95932.13
2023-08-23T06:18:12.361Z,95927.63
2023-08-23T06:20:40.367Z,95924.16
2023-08-23T06:23:07.346Z,95928.47
2023-08-23T06:25:34.053Z,95928.72
2023-08-23T06:28:00.804Z,95932.03
2023-08-23T06:30:27.690Z,95936.38
2023-08-23T06:32:54.494Z,95936.69
2023-08-23T06:35:23.082Z,95940.00
2023-08-23T06:37:49.937Z,95945.06
2023-08-23T06:40:17.997Z,95946.41
2023-08-23T06:42:44.979Z,95942.56
2023-08-23T06:45:11.907Z,95941.88
2023-08-23T06:47:39.264Z,95929.97
2023-08-23T06:50:10.420Z,95940.38
2023-08-23T06:52:38.863Z,95947.34
2023-08-23T06:55:06.142Z,95943.78
2023-08-23T06:57:32.915Z,95944.03
2023-08-23T07:00:00.702Z,95938.00
2023-08-23T07:02:27.500Z,95948.06
2023-08-23T07:04:54.577Z,95948.78
2023-08-23T07:07:22.183Z,95960.09
2023-08-23T07:09:49.687Z,95954.66
2023-08-23T07:12:16.593Z,95950.03
2023-08-23T07:14:43.442Z,95950.38
2023-08-23T07:17:10.284Z,95955.28
2023-08-23T07:19:37.190Z,95953.97
2023-08-23T07:22:05.224Z,95943.44
2023-08-23T07:24:32.765Z,95947.91
2023-08-23T07:26:59.845Z,95953.97
2023-08-23T07:29:26.623Z,95953.84
2023-08-23T07:31:53.727Z,95955.06
2023-08-23T07:34:20.904Z,95953.38
2023-08-23T07:36:47.660Z,95951.00
2023-08-23T07:39:14.314Z,95958.31
2023-08-23T07:41:41.016Z,95953.84
2023-08-23T07:44:07.839Z,95960.84
2023-08-23T07:46:34.633Z,95956.41
2023-08-23T07:49:01.366Z,95958.66
2023-08-23T07:51:28.223Z,95963.31
2023-08-23T07:53:55.120Z,95963.50
2023-08-23T07:56:21.901Z,95955.41
2023-08-23T07:58:48.556Z,95965.94
2023-08-23T08:01:15.558Z,95953.91
2023-08-23T08:03:42.403Z,95961.72
2023-08-23T08:06:09.093Z,95959.00
2023-08-23T08:08:40.557Z,95962.84
2023-08-23T08:11:07.513Z,95958.75
2023-08-23T08:13:34.210Z,95955.94
2023-08-23T08:16:09.501Z,95960.22
2023-08-23T08:18:36.604Z,95952.34
2023-08-23T08:21:03.382Z,95950.84
2023-08-23T08:23:30.967Z,95945.59
2023-08-23T08:25:58.091Z,95936.03
2023-08-23T08:28:25.049Z,95947.09
2023-08-23T08:30:51.769Z,95943.19
2023-08-23T08:33:18.745Z,95951.84
2023-08-23T08:35:45.543Z,95950.66
2023-08-23T08:38:12.402Z,95955.84
2023-08-23T08:40:40.206Z,95954.72
2023-08-23T08:43:10.302Z,95953.25
2023-08-23T08:45:39.009Z,95948.19
2023-08-23T08:48:07.234Z,95950.56
2023-08-23T08:50:34.557Z,95945.75
2023-08-23T08:53:02.315Z,95952.16
2023-08-23T08:55:30.695Z,95943.72
2023-08-23T08:57:58.500Z,95951.44
2023-08-23T09:00:30.549Z,95953.41
2023-08-23T09:02:59.291Z,95952.78
2023-08-23T09:05:27.174Z,95950.47
2023-08-23T09:07:58.168Z,95948.81
2023-08-23T09:10:25.917Z,95941.88
2023-08-23T09:12:53.725Z,95936.66
2023-08-23T09:15:25.287Z,95939.06
2023-08-23T09:17:56.224Z,95936.47
2023-08-23T09:20:24.305Z,95939.59
2023-08-23T09:22:53.298Z,95936.44
2023-08-23T09:25:21.064Z,95941.50
2023-08-23T09:27:48.243Z,95939.03
2023-08-23T09:30:15.441Z,95936.84
2023-08-23T09:32:43.592Z,95930.56
2023-08-23T09:35:18.412Z,95928.25
2023-08-23T09:37:47.174Z,95925.47
2023-08-23T09:40:21.943Z,95924.19
2023-08-23T09:42:49.876Z,95926.81
2023-08-23T09:45:20.561Z,95930.28
2023-08-23T09:47:53.016Z,95924.44
2023-08-23T09:50:21.404Z,95926.59
2023-08-23T09:55:18.655Z,95916.66
2023-08-23T09:57:45.895Z,95914.69
2023-08-23T10:00:13.405Z,95921.75
2023-08-23T10:02:41.987Z,95919.44
2023-08-23T10:05:13.049Z,95919.22
2023-08-23T10:07:41.885Z,95928.66
2023-08-23T10:10:09.707Z,95910.38
2023-08-23T10:12:38.904Z,95913.94
2023-08-23T10:15:06.842Z,95911.94
2023-08-23T10:17:34.832Z,95902.59
2023-08-23T10:20:08.942Z,95910.16
2023-08-23T10:22:36.533Z,95902.75
2023-08-23T10:25:14.173Z,95894.03
2023-08-23T10:27:41.447Z,95895.72
2023-08-23T10:30:19.821Z,95898.50
2023-08-23T10:32:47.606Z,95898.38
2023-08-23T10:35:33.528Z,95891.44
2023-08-23T10:38:01.156Z,95887.97
2023-08-23T10:40:32.559Z,95889.22
2023-08-23T10:43:03.478Z,95890.03
2023-08-23T10:45:30.335Z,95884.56
2023-08-23T10:47:57.420Z,95881.78
2023-08-23T10:50:24.293Z,95878.25
2023-08-23T10:52:51.391Z,95891.50
2023-08-23T10:55:18.588Z,95888.34
2023-08-23T10:57:46.520Z,95883.28
2023-08-23T11:00:14.401Z,95884.88
2023-08-23T11:02:41.377Z,95879.00
2023-08-23T11:05:08.495Z,95877.06
2023-08-23T11:07:36.458Z,95880.19
2023-08-23T11:10:03.496Z,95879.34
2023-08-23T11:12:30.245Z,95874.38
2023-08-23T11:14:57.824Z,95884.56
2023-08-23T11:17:24.608Z,95874.75
2023-08-23T11:19:51.693Z,95878.69
2023-08-23T11:22:18.935Z,95870.84
2023-08-23T11:24:47.739Z,95871.94
2023-08-23T11:27:15.277Z,95871.88
2023-08-23T11:29:43.944Z,95876.88
2023-08-23T11:32:13.409Z,95878.56
2023-08-23T11:34:40.390Z,95879.34
2023-08-23T11:37:10.748Z,95873.13
2023-08-23T11:39:37.733Z,95873.56
2023-08-23T11:42:04.679Z,95872.03
2023-08-23T11:44:31.848Z,95868.09
2023-08-23T11:46:59.787Z,95866.47
2023-08-23T11:49:26.898Z,95853.56
2023-08-23T11:51:54.735Z,95857.91
2023-08-23T11:54:24.367Z,95853.59
2023-08-23T11:56:51.129Z,95858.72
2023-08-23T11:59:17.841Z,95842.22
2023-08-23T12:01:44.833Z,95845.75
2023-08-23T12:04:14.950Z,95845.38
2023-08-23T12:06:44.171Z,95846.09
2023-08-23T12:09:12.744Z,95840.63
2023-08-23T12:11:39.835Z,95855.88
2023-08-23T12:14:08.064Z,95869.16
2023-08-23T12:16:36.022Z,95867.94
2023-08-23T12:19:07.245Z,95867.09
2023-08-23T12:21:41.416Z,95862.91
2023-08-23T12:24:08.262Z,95847.22
2023-08-23T12:26:35.119Z,95846.09
2023-08-23T12:29:01.805Z,95850.44
2023-08-23T12:31:28.827Z,95850.09
2023-08-23T12:33:55.719Z,95850.81
2023-08-23T12:36:22.593Z,95848.03
2023-08-23T12:38:50.509Z,95843.66
2023-08-23T12:41:17.281Z,95854.63
2023-08-23T12:43:44.107Z,95852.28
2023-08-23T12:46:10.899Z,95853.69
2023-08-23T12:48:38.311Z,95865.56
2023-08-23T12:51:05.044Z,95859.59
2023-08-23T12:53:31.753Z,95846.59
2023-08-23T12:55:58.456Z,95845.22
2023-08-23T12:58:25.151Z,95838.75
2023-08-23T13:00:51.863Z,95836.81
2023-08-23T13:03:18.800Z,95834.16
2023-08-23T13:05:45.478Z,95836.53
2023-08-23T13:08:12.195Z,95832.91
2023-08-23T13:10:39.701Z,95834.69
2023-08-23T13:13:06.426Z,95836.38
2023-08-23T13:15:33.151Z,95830.97
2023-08-23T13:18:00.441Z,95839.56
2023-08-23T13:20:27.209Z,95846.69
2023-08-23T13:22:54.545Z,95847.91
2023-08-23T13:25:21.301Z,95834.59
2023-08-23T13:27:48.233Z,95830.28
2023-08-23T13:30:15.166Z,95831.44
2023-08-23T13:32:41.966Z,95829.50
2023-08-23T13:35:09.184Z,95829.88
2023-08-23T13:37:36.008Z,95829.88
2023-08-23T13:40:03.202Z,95818.59
2023-08-23T13:42:29.943Z,95835.75
2023-08-23T13:44:56.607Z,95831.41
2023-08-23T13:47:23.355Z,95834.59
2023-08-23T13:49:50.152Z,95834.97
2023-08-23T13:52:16.941Z,95830.25
2023-08-23T13:54:43.877Z,95836.50
2023-08-23T13:57:10.582Z,95829.44
2023-08-23T13:59:37.290Z,95835.34
2023-08-23T14:02:04.456Z,95829.44
2023-08-23T14:04:34.268Z,95818.09
2023-08-23T14:07:01.093Z,95811.19
2023-08-23T14:09:27.790Z,95811.91
2023-08-23T14:11:56.642Z,95815.50
2023-08-23T14:14:24.313Z,95813.16
2023-08-23T14:16:51.253Z,95821.31
2023-08-23T14:19:20.649Z,95820.81
2023-08-23T14:21:47.486Z,95828.28
2023-08-23T14:24:14.616Z,95822.34
2023-08-23T14:26:41.384Z,95823.91
2023-08-23T14:29:08.129Z,95820.41
2023-08-23T14:31:35.268Z,95821.84
2023-08-23T14:34:01.976Z,95827.38
2023-08-23T14:36:28.870Z,95831.28
2023-08-23T14:38:58.062Z,95825.03
2023-08-23T14:41:26.415Z,95821.13
2023-08-23T14:43:53.122Z,95827.38
2023-08-23T14:46:19.905Z,95820.44
2023-08-23T14:48:46.810Z,95825.13
2023-08-23T14:51:13.492Z,95823.38
2023-08-23T14:53:40.140Z,95820.56
2023-08-23T14:56:06.819Z,95813.56
2023-08-23T14:58:33.546Z,95809.25
2023-08-23T15:01:00.278Z,95818.41
2023-08-23T15:03:27.369Z,95814.91
2023-08-23T15:05:57.269Z,95818.03
2023-08-23T15:08:25.801Z,95813.34
2023-08-23T15:10:56.647Z,95817.63
2023-08-23T15:13:23.696Z,95814.44
2023-08-23T15:15:58.350Z,95808.44
2023-08-23T15:18:25.667Z,95803.69
2023-08-23T15:20:52.675Z,95810.00
2023-08-23T15:23:19.583Z,95808.75
2023-08-23T15:25:46.747Z,95810.34
2023-08-23T15:28:14.069Z,95817.34
2023-08-23T15:30:41.551Z,95817.38
2023-08-23T15:33:10.028Z,95814.63
2023-08-23T15:35:37.129Z,95822.03
2023-08-23T15:38:04.246Z,95820.91
2023-08-23T15:40:31.305Z,95819.34
2023-08-23T15:42:58.094Z,95835.38
2023-08-23T15:45:24.821Z,95838.09
2023-08-23T15:47:54.556Z,95844.69
2023-08-23T15:50:23.220Z,95836.16
2023-08-23T15:52:49.900Z,95838.50
2023-08-23T15:55:16.805Z,95842.78
2023-08-23T15:57:43.553Z,95844.94
2023-08-23T16:00:11.564Z,95840.97
2023-08-23T16:02:38.483Z,95842.44
2023-08-23T16:05:05.742Z,95835.81
2023-08-23T16:07:33.058Z,95839.75
2023-08-23T16:09:59.793Z,95836.59
2023-08-23T16:12:26.624Z,95838.53
2023-08-23T16:14:53.350Z,95831.84
2023-08-23T16:17:20.047Z,95832.38
2023-08-23T16:19:46.732Z,95831.91
2023-08-23T16:22:13.891Z,95836.59
2023-08-23T16:24:40.772Z,95852.25
2023-08-23T16:27:07.532Z,95840.56
2023-08-23T16:29:34.195Z,95826.28
2023-08-23T16:32:00.878Z,95822.41
2023-08-23T16:34:27.726Z,95831.28
2023-08-23T16:36:54.543Z,95827.28
2023-08-23T16:39:21.195Z,95842.06
2023-08-23T16:41:47.962Z,95840.84
2023-08-23T16:44:14.714Z,95840.91
2023-08-23T16:46:41.387Z,95840.91
2023-08-23T16:49:08.027Z,95834.19
2023-08-23T16:51:35.372Z,95831.50
2023-08-23T16:54:04.190Z,95843.53
2023-08-23T16:56:30.886Z,95859.53
2023-08-23T16:58:57.568Z,95863.72
2023-08-23T17:01:24.337Z,95872.22
2023-08-23T17:03:51.026Z,95864.94
2023-08-23T17:06:17.754Z,95860.47
2023-08-23T17:08:44.490Z,95863.63
2023-08-23T17:11:11.153Z,95862.66
2023-08-23T17:13:37.877Z,95861.19
2023-08-23T17:16:04.803Z,95866.25
2023-08-23T17:18:31.479Z,95860.47
2023-08-23T17:21:00.545Z,95870.66
2023-08-23T17:23:27.627Z,95876.53
2023-08-23T17:25:54.333Z,95869.75
2023-08-23T17:28:21.095Z,95866.16
2023-08-23T17:30:47.803Z,95872.38
2023-08-23T17:33:14.563Z,95868.50
2023-08-23T17:35:41.400Z,95872.44
2023-08-23T17:38:08.080Z,95881.66
2023-08-23T17:40:35.212Z,95881.09
2023-08-23T17:43:01.921Z,95889.13
2023-08-23T17:45:28.594Z,95881.34
2023-08-23T17:47:55.748Z,95882.06
2023-08-23T17:50:22.708Z,95884.63
2023-08-23T17:52:51.355Z,95893.16
2023-08-23T17:55:20.063Z,95890.75
2023-08-23T17:57:47.233Z,95889.59
2023-08-23T18:00:14.557Z,95886.38
2023-08-23T18:02:41.483Z,95883.78
2023-08-23T18:05:08.543Z,95886.41
2023-08-23T18:07:35.210Z,95883.63
2023-08-23T18:10:01.989Z,95877.00
2023-08-23T18:12:29.494Z,95883.63
2023-08-23T18:14:56.730Z,95888.22
2023-08-23T18:17:23.798Z,95899.41
2023-08-23T18:19:50.627Z,95895.13
2023-08-23T18:22:17.322Z,95894.88
2023-08-23T18:24:44.219Z,95890.72
2023-08-23T18:27:10.918Z,95898.16
2023-08-23T18:29:37.572Z,95893.06
2023-08-23T18:32:04.421Z,95892.66
2023-08-23T18:34:31.131Z,95896.44
2023-08-23T18:36:57.868Z,95890.13
2023-08-23T18:39:24.689Z,95894.44
2023-08-23T18:41:51.380Z,95890.94
2023-08-23T18:44:18.034Z,95898.06
2023-08-23T18:46:45.076Z,95897.72
2023-08-23T18:49:11.797Z,95887.81
2023-08-23T18:51:38.451Z,95892.50
2023-08-23T18:54:05.554Z,95895.94
2023-08-23T18:56:32.849Z,95905.28
2023-08-23T18:59:02.328Z,95900.94
2023-08-23T19:01:29.770Z,95905.06
2023-08-23T19:03:57.593Z,95911.72
2023-08-23T19:06:25.152Z,95917.53
2023-08-23T19:08:51.989Z,95921.94
2023-08-23T19:11:18.736Z,95921.50
2023-08-23T19:13:45.633Z,95917.09
2023-08-23T19:16:12.444Z,95922.13
2023-08-23T19:18:39.305Z,95917.84
2023-08-23T19:21:05.992Z,95917.19
2023-08-23T19:23:32.752Z,95918.59
2023-08-23T19:25:59.449Z,95918.09
2023-08-23T19:28:26.137Z,95923.69
2023-08-23T19:30:53.142Z,95928.00
2023-08-23T19:33:20.102Z,95933.78
2023-08-23T19:35:49.900Z,95931.06
2023-08-23T19:38:16.607Z,95927.81
2023-08-23T19:40:43.653Z,95936.88
2023-08-23T19:43:10.344Z,95936.69
2023-08-23T19:45:38.028Z,95930.72
2023-08-23T19:48:16.966Z,95934.06
2023-08-23T19:50:52.356Z,95936.34
2023-08-23T19:53:19.562Z,95936.00
2023-08-23T19:55:47.049Z,95937.81
2023-08-23T19:58:17.116Z,95940.63
2023-08-23T20:00:44.060Z,95935.38
2023-08-23T20:03:12.502Z,95939.31
2023-08-23T20:05:44.738Z,95939.47
2023-08-23T20:08:11.859Z,95934.75
2023-08-23T20:10:38.650Z,95935.97
2023-08-23T20:13:05.480Z,95942.91
2023-08-23T20:15:32.600Z,95940.28
2023-08-23T20:17:59.476Z,95939.81
2023-08-23T20:20:26.336Z,95948.53
2023-08-23T20:22:56.102Z,95942.34
2023-08-23T20:25:23.004Z,95934.09
2023-08-23T20:27:49.900Z,95939.19
2023-08-23T20:30:16.794Z,95932.47
2023-08-23T20:32:43.740Z,95925.97
2023-08-23T20:35:10.457Z,95924.16
2023-08-23T20:37:37.166Z,95924.44
2023-08-23T20:40:05.066Z,95925.59
2023-08-23T20:42:31.717Z,95922.06
2023-08-23T20:44:58.637Z,95922.66
2023-08-23T20:47:25.390Z,95927.63
2023-08-23T20:49:52.136Z,95937.16
2023-08-23T20:52:18.808Z,95932.00
2023-08-23T20:54:45.649Z,95932.97
2023-08-23T20:57:12.359Z,95935.00
2023-08-23T20:59:39.052Z,95944.28
2023-08-23T21:02:06.284Z,95940.03
2023-08-23T21:04:33.009Z,95946.22
2023-08-23T21:06:59.725Z,95946.44
2023-08-23T21:09:26.554Z,95945.34
2023-08-23T21:11:53.200Z,95932.56
2023-08-23T21:14:19.841Z,95923.50
2023-08-23T21:16:46.940Z,95933.13
2023-08-23T21:19:14.058Z,95944.56
2023-08-23T21:21:40.802Z,95948.41
2023-08-23T21:24:07.553Z,95946.47
2023-08-23T21:26:34.261Z,95942.63
2023-08-23T21:29:01.109Z,95940.94
2023-08-23T21:31:27.991Z,95943.22
2023-08-23T21:33:54.788Z,95939.59
2023-08-23T21:36:21.615Z,95936.63
2023-08-23T21:38:48.331Z,95935.16
2023-08-23T21:41:15.438Z,95940.03
2023-08-23T21:43:42.216Z,95932.44
2023-08-23T21:46:09.043Z,95942.06
2023-08-23T21:48:35.900Z,95942.53
2023-08-23T21:51:02.617Z,95950.34
2023-08-23T21:53:29.433Z,95949.81
2023-08-23T21:55:56.997Z,95952.38
2023-08-23T21:58:28.978Z,95950.91
2023-08-23T22:00:58.864Z,95953.75
2023-08-23T22:03:33.608Z,95952.94
2023-08-23T22:06:05.144Z,95952.97
2023-08-23T22:08:37.744Z,95948.13
2023-08-23T22:11:21.159Z,95947.22
2023-08-23T22:13:47.817Z,95957.25
2023-08-23T22:16:14.601Z,95951.16
2023-08-23T22:18:41.729Z,95947.78
2023-08-23T22:21:10.472Z,95953.63
2023-08-23T22:23:37.727Z,95947.78
2023-08-23T22:26:05.394Z,95943.13
2023-08-23T22:28:33.115Z,95950.72
2023-08-23T22:31:00.002Z,95948.66
2023-08-23T22:33:27.960Z,95942.78
2023-08-23T22:35:59.065Z,95950.09
2023-08-23T22:38:27.140Z,95946.16
2023-08-23T22:40:55.136Z,95941.75
2023-08-23T22:43:22.149Z,95944.78
2023-08-23T22:45:48.961Z,95945.34
2023-08-23T22:48:15.762Z,95943.75
2023-08-23T22:50:42.498Z,95944.53
2023-08-23T22:53:09.883Z,95954.72
2023-08-23T22:55:38.959Z,95946.47
2023-08-23T22:58:06.562Z,95949.50
2023-08-23T23:00:33.517Z,95946.31
2023-08-23T23:03:00.340Z,95944.50
2023-08-23T23:05:27.877Z,95942.59
2023-08-23T23:07:55.173Z,95949.91
2023-08-23T23:10:22.969Z,95949.03
2023-08-23T23:12:49.827Z,95943.28
2023-08-23T23:15:16.804Z,95949.25
2023-08-23T23:17:44.178Z,95940.91
2023-08-23T23:20:12.913Z,95947.66
2023-08-23T23:22:40.297Z,95945.72
2023-08-23T23:25:08.664Z,95944.81
2023-08-23T23:27:36.337Z,95951.13
2023-08-23T23:30:03.238Z,95939.28
2023-08-23T23:32:29.962Z,95943.88
2023-08-23T23:34:56.655Z,95940.84
2023-08-23T23:37:23.339Z,95933.16
2023-08-23T23:39:50.094Z,95938.97
2023-08-23T23:42:17.058Z,95928.63
2023-08-23T23:44:43.801Z,95922.44
2023-08-23T23:47:10.564Z,95930.66
2023-08-23T23:49:37.261Z,95923.13
2023-08-23T23:52:04.189Z,95925.25
2023-08-23T23:54:30.874Z,95926.13
2023-08-23T23:56:57.650Z,95917.06
2023-08-23T23:59:24.345Z,95922.97
